Time;durP1;ratioP1;P1;durP2;ratioP2;P2;SDS_P1;SDS_P2;PMS_P1;PMS_P2;Temp;Humidity;BMP_temperature;BMP_pressure;BME280_temperature;BME280_humidity;BME280_pressure;Samples;Min_cycle;Max_cycle;Signal;HPM_P1;HPM_P2
2024/02/05 00:00:30;;;;;;;1.90;0.90;;;;;;;10.45;89.23;98925.06;4071376;29;20634;-86
2024/02/05 00:02:34;;;;;;;1.80;1.00;;;;;;;10.44;89.14;98928.56;4079452;29;20638;-86
2024/02/05 00:04:37;;;;;;;1.67;0.87;;;;;;;10.42;89.73;98920.00;4078874;29;20650;-86
2024/02/05 00:06:40;;;;;;;1.80;0.90;;;;;;;10.43;89.51;98926.03;4075740;29;21309;-86
2024/02/05 00:08:45;;;;;;;1.67;0.83;;;;;;;10.39;89.67;98925.38;4043439;29;20648;-86
2024/02/05 00:10:49;;;;;;;1.80;0.93;;;;;;;10.39;89.23;98921.94;4071755;29;20631;-86
2024/02/05 00:12:54;;;;;;;2.27;0.77;;;;;;;10.34;89.93;98919.59;4088357;28;20621;-86
2024/02/05 00:14:56;;;;;;;1.90;0.87;;;;;;;10.23;90.22;98905.44;4076673;29;21191;-87
2024/02/05 00:17:00;;;;;;;1.53;0.70;;;;;;;10.15;90.63;98910.22;4080689;29;20630;-86
2024/02/05 00:19:03;;;;;;;1.23;0.70;;;;;;;10.17;90.67;98908.38;4064832;29;20651;-86
2024/02/05 00:21:06;;;;;;;1.33;0.70;;;;;;;10.09;90.53;98913.16;4079557;29;20653;-86
2024/02/05 00:23:09;;;;;;;2.47;0.77;;;;;;;10.13;90.72;98912.09;4065576;29;20703;-86
2024/02/05 00:25:12;;;;;;;1.30;0.70;;;;;;;10.14;90.82;98916.34;4065868;29;21012;-86
2024/02/05 00:27:15;;;;;;;1.30;0.60;;;;;;;10.19;91.16;98910.88;4075854;29;20660;-86
2024/02/05 00:29:20;;;;;;;1.33;0.70;;;;;;;10.19;90.57;98916.94;4074082;29;20658;-86
2024/02/05 00:31:24;;;;;;;1.60;0.80;;;;;;;10.20;90.96;98915.19;4075479;29;20633;-85
2024/02/05 00:33:26;;;;;;;1.30;0.60;;;;;;;10.18;90.56;98915.28;4057117;29;20683;-86
2024/02/05 00:35:30;;;;;;;1.60;0.80;;;;;;;10.14;90.88;98915.53;4078365;29;21210;-86
2024/02/05 00:37:32;;;;;;;1.63;0.80;;;;;;;10.14;90.25;98907.69;4078592;29;20637;-86
2024/02/05 00:39:35;;;;;;;1.53;0.80;;;;;;;10.14;90.71;98920.72;4071712;29;20731;-86
2024/02/05 00:41:39;;;;;;;1.60;0.80;;;;;;;10.14;90.43;98918.97;4060647;29;20627;-86
2024/02/05 00:43:41;;;;;;;2.17;0.70;;;;;;;10.04;90.69;98922.13;4051597;29;20703;-86
2024/02/05 00:45:46;;;;;;;1.50;0.80;;;;;;;9.94;90.93;98916.56;4051725;29;20651;-86
2024/02/05 00:47:50;;;;;;;1.30;0.70;;;;;;;9.97;90.70;98919.00;4069967;29;20635;-86
2024/02/05 00:49:53;;;;;;;1.60;1.00;;;;;;;9.99;91.30;98922.38;4072253;29;20631;-86
2024/02/05 00:51:56;;;;;;;1.70;1.10;;;;;;;9.99;91.05;98930.19;4060929;29;20643;-86
2024/02/05 00:54:00;;;;;;;1.20;0.60;;;;;;;9.98;91.30;98932.88;4059723;29;20742;-86
2024/02/05 00:56:03;;;;;;;1.20;0.60;;;;;;;9.95;91.46;98935.63;4075354;29;20637;-86
2024/02/05 00:58:06;;;;;;;2.17;0.60;;;;;;;10.03;91.08;98936.94;4079532;29;20665;-86
2024/02/05 01:00:11;;;;;;;1.93;0.90;;;;;;;9.99;91.42;98935.41;4061425;29;20642;-87
2024/02/05 01:02:16;;;;;;;1.60;0.80;;;;;;;9.96;91.60;98932.94;4076481;29;20637;-86
2024/02/05 01:04:19;;;;;;;1.47;0.70;;;;;;;9.93;91.91;98945.28;4059808;29;20672;-86
2024/02/05 01:06:22;;;;;;;4.20;0.93;;;;;;;9.94;92.01;98942.63;4090778;28;20683;-86
2024/02/05 01:08:25;;;;;;;3.00;0.90;;;;;;;9.93;91.67;98956.56;4062016;29;20627;-86
2024/02/05 01:10:28;;;;;;;1.83;0.97;;;;;;;9.91;91.95;98962.75;4063117;29;20634;-86
2024/02/05 01:12:32;;;;;;;2.30;0.80;;;;;;;9.93;92.29;98960.91;4075630;29;20637;-86
2024/02/05 01:14:35;;;;;;;1.50;0.90;;;;;;;9.88;92.40;98962.91;4072414;29;20682;-86
2024/02/05 01:16:37;;;;;;;2.10;0.80;;;;;;;9.85;93.25;98955.25;4078056;29;20737;-85
2024/02/05 01:18:42;;;;;;;1.70;0.90;;;;;;;9.84;92.29;98963.16;4075866;29;20664;-85
2024/02/05 01:20:45;;;;;;;2.97;0.90;;;;;;;9.84;92.95;98957.94;4074277;29;20202;-86
2024/02/05 01:22:49;;;;;;;1.73;0.70;;;;;;;9.84;92.80;98960.56;4079569;29;20207;-86
2024/02/05 01:24:53;;;;;;;1.40;1.00;;;;;;;9.81;92.52;98964.16;4072797;29;20634;-86
2024/02/05 01:26:55;;;;;;;1.60;0.80;;;;;;;9.84;92.78;98972.63;4073654;29;20214;-86
2024/02/05 01:28:58;;;;;;;2.00;1.00;;;;;;;9.87;92.59;98967.28;4071183;29;20645;-85
2024/02/05 01:31:02;;;;;;;1.70;1.00;;;;;;;9.85;92.64;98963.91;4076633;29;20639;-86
2024/02/05 01:33:05;;;;;;;2.27;1.10;;;;;;;9.87;93.39;98961.22;4067378;29;20714;-87
2024/02/05 01:35:11;;;;;;;1.97;1.13;;;;;;;9.80;92.70;98959.00;4062810;29;21240;-87
2024/02/05 01:37:14;;;;;;;1.50;0.80;;;;;;;9.84;92.71;98960.56;4062244;29;20712;-86
2024/02/05 01:39:18;;;;;;;1.63;0.90;;;;;;;9.84;92.19;98964.81;4087800;28;20233;-86
2024/02/05 01:41:22;;;;;;;2.67;1.10;;;;;;;9.84;92.29;98963.16;4072057;29;20634;-86
2024/02/05 01:43:25;;;;;;;1.60;0.90;;;;;;;9.85;91.78;98955.25;4070778;29;20960;-86
2024/02/05 01:45:29;;;;;;;3.38;0.90;;;;;;;9.77;92.48;98949.59;4075069;29;20630;-86
2024/02/05 01:47:32;;;;;;;2.10;1.10;;;;;;;9.77;92.17;98951.34;4064831;29;20259;-86
2024/02/05 01:49:36;;;;;;;2.20;1.30;;;;;;;9.78;92.18;98953.88;4056028;29;20204;-88
2024/02/05 01:51:45;;;;;;;3.00;0.70;;;;;;;9.70;92.45;98950.84;4063266;29;20721;-85
2024/02/05 01:53:49;;;;;;;1.83;0.80;;;;;;;9.63;92.50;98948.63;4064988;29;20634;-86
2024/02/05 01:55:53;;;;;;;2.07;1.00;;;;;;;9.67;92.62;98943.19;4054746;29;20616;-86
2024/02/05 01:57:56;;;;;;;1.70;1.00;;;;;;;9.67;92.48;98951.00;4056859;29;21008;-86
2024/02/05 02:00:10;;;;;;;1.70;0.90;;;;;;;9.68;92.09;98949.22;4070975;29;20215;-85
2024/02/05 02:02:15;;;;;;;2.10;1.00;;;;;;;9.57;93.15;98947.16;4061865;29;20266;-86
2024/02/05 02:04:18;;;;;;;1.77;1.00;;;;;;;9.51;92.88;98942.25;4061786;29;20222;-86
2024/02/05 02:06:22;;;;;;;2.53;1.20;;;;;;;9.48;93.86;98950.22;4085230;28;20669;-86
2024/02/05 02:08:28;;;;;;;3.10;0.90;;;;;;;9.49;94.30;98948.47;4058249;29;20271;-86
2024/02/05 02:10:31;;;;;;;1.90;0.87;;;;;;;9.49;93.64;98959.72;4076411;29;20642;-86
2024/02/05 02:12:34;;;;;;;1.70;0.93;;;;;;;9.52;93.66;98963.94;4072907;29;20622;-86
2024/02/05 02:14:38;;;;;;;2.60;0.90;;;;;;;9.59;93.44;98960.09;4074882;29;20221;-86
2024/02/05 02:16:42;;;;;;;2.77;1.10;;;;;;;9.56;93.83;98965.47;4074583;29;20675;-86
2024/02/05 02:18:46;;;;;;;1.95;0.95;;;;;;;9.57;93.54;98967.16;4072276;29;20637;-86
2024/02/05 02:20:52;;;;;;;6.35;1.08;;;;;;;9.60;93.54;98957.41;4060090;29;20211;-86
2024/02/05 02:22:59;;;;;;;3.53;1.00;;;;;;;9.56;93.11;98961.13;4072427;29;20683;-86
2024/02/05 02:25:03;;;;;;;2.20;0.90;;;;;;;9.57;93.15;98959.34;4074667;29;20669;-86
2024/02/05 02:27:06;;;;;;;2.00;1.10;;;;;;;9.56;93.83;98966.31;4074312;29;20682;-86
2024/02/05 02:29:10;;;;;;;1.63;0.77;;;;;;;9.55;93.95;98958.59;4068352;29;20630;-86
2024/02/05 02:31:14;;;;;;;3.55;1.02;;;;;;;9.56;93.18;98955.03;4070675;29;20206;-86
2024/02/05 02:33:21;;;;;;;2.40;1.67;;;;;;;9.57;93.31;98956.75;4076306;29;20342;-86
2024/02/05 02:35:30;;;;;;;3.30;0.80;;;;;;;9.55;94.09;98945.56;4057428;29;20707;-86
2024/02/05 02:37:36;;;;;;;1.70;0.80;;;;;;;9.51;93.94;98941.44;4059263;29;20622;-86
2024/02/05 02:39:44;;;;;;;2.07;0.70;;;;;;;9.45;94.13;98944.34;4071987;29;20650;-86
2024/02/05 02:41:50;;;;;;;1.60;0.80;;;;;;;9.49;94.33;98953.69;4059989;29;20762;-86
2024/02/05 02:43:56;;;;;;;1.90;0.80;;;;;;;9.48;93.72;98944.19;4075892;29;20648;-85
2024/02/05 02:46:00;;;;;;;2.13;0.80;;;;;;;9.43;94.01;98938.38;4072291;29;20659;-86
2024/02/05 02:48:02;;;;;;;1.83;0.90;;;;;;;9.44;94.52;98946.09;4061272;29;21093;-86
2024/02/05 02:50:07;;;;;;;4.53;1.70;;;;;;;9.44;95.21;98932.22;4075491;29;20645;-86
2024/02/05 02:52:11;;;;;;;1.50;0.80;;;;;;;9.50;94.35;98938.00;4071980;29;20210;-85
2024/02/05 02:54:15;;;;;;;1.80;0.80;;;;;;;9.37;94.79;98937.81;4051457;29;20634;-86
2024/02/05 02:56:18;;;;;;;3.50;0.80;;;;;;;9.39;94.97;98937.66;4061143;29;20304;-86
2024/02/05 02:58:23;;;;;;;1.58;0.93;;;;;;;9.37;94.75;98933.47;4059801;29;20635;-86
2024/02/05 03:00:26;;;;;;;1.37;0.73;;;;;;;9.41;94.89;98942.78;4066221;29;20282;-85
2024/02/05 03:02:28;;;;;;;3.73;1.07;;;;;;;9.35;94.60;98943.13;4071567;29;20677;-85
2024/02/05 03:04:34;;;;;;;2.70;0.90;;;;;;;9.41;94.57;98956.69;4076216;29;21229;-86
2024/02/05 03:06:38;;;;;;;3.00;0.70;;;;;;;9.41;94.54;98955.81;4076641;29;20265;-86
2024/02/05 03:08:41;;;;;;;2.33;0.70;;;;;;;9.49;94.82;98954.53;4063450;29;20211;-86
2024/02/05 03:10:44;;;;;;;1.50;0.80;;;;;;;9.52;94.26;98948.34;4080763;29;21399;-86
2024/02/05 03:12:48;;;;;;;2.17;0.80;;;;;;;9.56;94.42;98957.66;4063386;29;20324;-85
2024/02/05 03:14:52;;;;;;;2.00;0.73;;;;;;;9.50;93.85;98950.16;4075418;29;20637;-86
2024/02/05 03:16:56;;;;;;;1.67;0.90;;;;;;;9.48;94.24;98965.84;4073854;29;20655;-86
2024/02/05 03:18:59;;;;;;;2.10;0.63;;;;;;;9.44;94.83;98966.06;4073764;29;21198;-86
2024/02/05 03:21:02;;;;;;;1.60;0.83;;;;;;;9.48;94.51;98962.41;4077096;29;20658;-86
2024/02/05 03:23:07;;;;;;;1.60;0.70;;;;;;;9.40;94.78;98957.59;4079260;29;20642;-86
2024/02/05 03:25:14;;;;;;;1.27;0.67;;;;;;;9.44;94.77;98966.06;4063756;29;21275;-86
2024/02/05 03:27:18;;;;;;;2.07;0.70;;;;;;;9.49;94.42;98958.91;4064541;29;20639;-86
2024/02/05 03:29:21;;;;;;;1.67;0.70;;;;;;;9.51;94.61;98959.66;4059447;29;20631;-86
2024/02/05 03:31:27;;;;;;;1.75;0.88;;;;;;;9.39;94.94;98957.66;4076845;29;20666;-86
2024/02/05 03:33:30;;;;;;;2.00;0.70;;;;;;;9.48;94.63;98952.81;4071593;29;20548;-86
2024/02/05 03:35:33;;;;;;;1.40;0.77;;;;;;;9.58;93.90;98956.66;4069956;29;20218;-86
2024/02/05 03:37:38;;;;;;;1.50;0.80;;;;;;;9.56;94.57;98953.31;4074063;29;20711;-85
2024/02/05 03:39:41;;;;;;;1.73;0.80;;;;;;;9.55;94.20;98958.59;4076548;29;20213;-86
2024/02/05 03:41:43;;;;;;;2.22;0.70;;;;;;;9.43;94.79;98947.03;4076575;29;20211;-86
2024/02/05 03:43:47;;;;;;;3.67;0.88;;;;;;;9.47;95.25;98950.31;4061660;29;20211;-86
2024/02/05 03:45:50;;;;;;;2.50;0.60;;;;;;;9.49;94.64;98945.88;4070098;29;20209;-86
2024/02/05 03:47:55;;;;;;;1.47;0.70;;;;;;;9.49;94.75;98951.91;4087082;28;20729;-86
2024/02/05 03:49:59;;;;;;;2.85;0.60;;;;;;;9.44;95.34;98945.25;4070652;29;20631;-86
2024/02/05 03:52:02;;;;;;;1.15;0.52;;;;;;;9.47;94.97;98953.75;4073071;29;20207;-86
2024/02/05 03:54:06;;;;;;;2.80;0.70;;;;;;;9.45;94.67;98946.94;4076236;29;20206;-86
2024/02/05 03:56:11;;;;;;;1.60;0.70;;;;;;;9.50;94.72;98950.16;4062016;29;20206;-86
2024/02/05 03:58:15;;;;;;;1.90;0.68;;;;;;;9.52;94.12;98954.38;4057611;29;20213;-85
2024/02/05 04:00:21;;;;;;;1.53;0.73;;;;;;;9.57;95.03;98941.13;4060595;29;20685;-86
2024/02/05 04:02:26;;;;;;;1.55;0.63;;;;;;;9.59;94.55;98947.94;4074306;29;20626;-86
2024/02/05 04:04:32;;;;;;;2.43;0.70;;;;;;;9.59;94.67;98944.47;4074255;29;20269;-86
2024/02/05 04:06:35;;;;;;;2.47;0.80;;;;;;;9.59;94.37;98955.75;4060303;29;20687;-86
2024/02/05 04:08:37;;;;;;;1.33;0.53;;;;;;;9.63;94.53;98951.22;4073771;29;20210;-86
2024/02/05 04:10:40;;;;;;;1.40;0.50;;;;;;;9.62;94.68;98957.34;4070903;29;20658;-86
2024/02/05 04:12:44;;;;;;;1.50;0.60;;;;;;;9.64;94.01;98955.53;4073362;29;21978;-86
2024/02/05 04:14:47;;;;;;;3.28;0.70;;;;;;;9.60;94.38;98959.19;4055974;29;20214;-85
2024/02/05 04:16:50;;;;;;;1.75;0.65;;;;;;;9.50;94.67;98939.72;4077513;29;20613;-85
2024/02/05 04:18:53;;;;;;;1.40;0.60;;;;;;;9.39;94.93;98948.06;4062251;29;20211;-85
2024/02/05 04:21:03;;;;;;;1.90;0.60;;;;;;;9.43;95.28;98954.00;4061660;29;21233;-86
2024/02/05 04:23:06;;;;;;;2.80;0.60;;;;;;;9.29;96.25;98945.19;4057958;29;20627;-86
2024/02/05 04:25:10;;;;;;;3.92;0.60;;;;;;;9.29;95.91;98961.66;4073638;29;20697;-86
2024/02/05 04:27:14;;;;;;;2.05;0.60;;;;;;;9.34;96.03;98959.66;4055378;29;20247;-85
2024/02/05 04:29:24;;;;;;;1.40;0.50;;;;;;;9.35;96.12;98976.97;4074732;29;20210;-86
2024/02/05 04:31:28;;;;;;;2.35;0.50;;;;;;;9.36;95.46;98981.25;4091726;28;20217;-85
2024/02/05 04:33:31;;;;;;;1.75;0.70;;;;;;;9.45;95.65;98978.19;4062540;29;20246;-85
2024/02/05 04:35:34;;;;;;;2.38;0.60;;;;;;;9.44;95.36;98979.97;4055866;29;20218;-86
2024/02/05 04:37:40;;;;;;;1.30;0.50;;;;;;;9.41;95.71;98981.84;4075928;29;20244;-86
2024/02/05 04:39:43;;;;;;;1.55;0.70;;;;;;;9.43;95.70;98986.06;4073541;29;20217;-85
2024/02/05 04:41:47;;;;;;;1.25;0.50;;;;;;;9.52;95.42;98985.63;4076650;29;20328;-86
2024/02/05 04:43:51;;;;;;;1.60;0.70;;;;;;;9.57;94.92;98985.38;4076712;29;20899;-86
2024/02/05 04:45:54;;;;;;;1.70;0.55;;;;;;;9.64;94.76;98994.59;4059727;29;20616;-86
2024/02/05 04:47:57;;;;;;;1.20;0.60;;;;;;;9.64;94.57;98992.81;4063094;29;20207;-86
2024/02/05 04:50:01;;;;;;;1.60;0.60;;;;;;;9.68;94.22;98996.09;4074403;29;20262;-86
2024/02/05 04:52:05;;;;;;;2.57;0.70;;;;;;;9.67;94.31;98997.88;4079404;29;20661;-86
2024/02/05 04:54:10;;;;;;;1.50;0.50;;;;;;;9.68;95.10;98996.09;4064206;29;20611;-86
2024/02/05 04:56:13;;;;;;;1.95;0.60;;;;;;;9.76;94.75;98989.59;4074864;29;20639;-86
2024/02/05 04:58:16;;;;;;;1.63;0.47;;;;;;;9.79;93.91;98999.84;4061144;29;20250;-86
2024/02/05 05:00:21;;;;;;;2.13;0.52;;;;;;;9.84;93.78;98997.03;4061787;29;20206;-86
2024/02/05 05:02:25;;;;;;;2.13;0.60;;;;;;;9.80;93.64;98995.47;4076901;29;20215;-86
2024/02/05 05:04:29;;;;;;;1.50;0.50;;;;;;;9.79;93.74;98999.84;4056577;29;20678;-85
2024/02/05 05:06:32;;;;;;;1.50;0.50;;;;;;;9.83;93.81;99003.13;4070556;29;20237;-86
2024/02/05 05:08:36;;;;;;;1.93;0.70;;;;;;;9.86;92.81;98999.47;4069340;29;20634;-86
2024/02/05 05:10:40;;;;;;;1.60;0.87;;;;;;;9.83;93.41;99003.13;4076162;29;20728;-86
2024/02/05 05:12:43;;;;;;;1.20;0.63;;;;;;;9.85;93.18;99003.00;4073089;29;21255;-86
2024/02/05 05:14:46;;;;;;;1.37;0.60;;;;;;;9.92;93.28;99006.13;4070943;29;20210;-87
2024/02/05 05:16:49;;;;;;;1.40;0.60;;;;;;;9.96;92.86;99002.47;4061238;29;21239;-86
2024/02/05 05:18:52;;;;;;;1.63;0.60;;;;;;;9.90;92.62;99000.97;4057560;29;20678;-86
2024/02/05 05:20:56;;;;;;;2.47;0.73;;;;;;;9.93;92.69;98998.25;4073593;29;20974;-86
2024/02/05 05:22:59;;;;;;;1.20;0.57;;;;;;;9.98;92.80;98996.28;4076128;29;20721;-86
2024/02/05 05:25:02;;;;;;;1.50;0.60;;;;;;;10.05;93.03;99000.22;4063725;29;20645;-87
2024/02/05 05:27:07;;;;;;;3.30;0.77;;;;;;;10.02;92.55;98995.19;4062347;29;20647;-86
2024/02/05 05:29:10;;;;;;;3.33;0.50;;;;;;;10.02;91.97;99002.16;4060866;29;20623;-86
2024/02/05 05:31:16;;;;;;;1.40;0.70;;;;;;;10.04;92.36;99008.13;4059127;29;20628;-85
2024/02/05 05:33:19;;;;;;;1.30;0.60;;;;;;;10.05;91.82;99008.03;4059578;29;21050;-86
2024/02/05 05:35:23;;;;;;;1.40;0.60;;;;;;;10.05;91.72;99008.03;4073420;29;20214;-86
2024/02/05 05:37:27;;;;;;;1.37;0.50;;;;;;;10.09;92.28;99009.59;4065993;29;20217;-86
2024/02/05 05:39:30;;;;;;;3.00;0.50;;;;;;;10.12;91.56;99014.63;4066757;29;21549;-86
2024/02/05 05:41:35;;;;;;;1.20;0.50;;;;;;;10.11;91.29;99006.91;4065748;29;20655;-86
2024/02/05 05:43:42;;;;;;;2.10;0.60;;;;;;;10.09;91.33;99012.19;4066813;29;20638;-86
2024/02/05 05:45:45;;;;;;;2.37;0.60;;;;;;;10.10;90.88;99006.06;4066320;29;21271;-86
2024/02/05 05:47:49;;;;;;;1.27;0.60;;;;;;;10.14;91.29;99007.56;4065350;29;20635;-86
2024/02/05 05:49:52;;;;;;;1.20;0.50;;;;;;;10.14;91.46;99004.13;4065746;29;20634;-86
2024/02/05 05:51:55;;;;;;;1.20;0.47;;;;;;;10.11;91.25;98997.31;4073300;29;20681;-86
2024/02/05 05:53:58;;;;;;;1.20;0.53;;;;;;;10.08;90.70;98994.03;4055316;29;20712;-85
2024/02/05 05:56:01;;;;;;;2.30;0.70;;;;;;;10.10;91.47;98998.25;4074417;29;20631;-86
2024/02/05 05:58:05;;;;;;;1.73;0.50;;;;;;;10.14;90.99;99006.75;4072088;29;21181;-86
2024/02/05 06:00:11;;;;;;;1.20;0.50;;;;;;;10.13;90.78;99003.31;4073707;29;20634;-86
2024/02/05 06:02:14;;;;;;;2.90;0.50;;;;;;;10.15;90.31;98998.84;4074101;29;21156;-85
2024/02/05 06:04:18;;;;;;;2.63;0.80;;;;;;;10.12;90.14;99001.59;4073071;29;20627;-86
2024/02/05 06:06:21;;;;;;;1.50;0.50;;;;;;;10.03;91.00;98991.66;4060404;29;20265;-86
2024/02/05 06:08:24;;;;;;;1.37;0.60;;;;;;;10.04;90.20;99006.38;4071130;29;21328;-86
2024/02/05 06:10:27;;;;;;;1.95;0.60;;;;;;;9.98;91.42;98996.28;4071084;29;20634;-86
2024/02/05 06:12:31;;;;;;;1.50;0.50;;;;;;;9.95;90.72;99000.78;4054145;29;20207;-86
2024/02/05 06:14:34;;;;;;;1.20;0.40;;;;;;;9.88;91.11;99002.84;4074127;29;20638;-86
2024/02/05 06:16:39;;;;;;;1.20;0.50;;;;;;;9.85;90.59;98995.16;4060599;29;20734;-86
2024/02/05 06:18:42;;;;;;;1.17;0.50;;;;;;;9.88;91.68;98991.56;4060780;29;20634;-86
2024/02/05 06:20:45;;;;;;;1.85;0.82;;;;;;;9.77;92.06;99003.44;4061993;29;21286;-86
2024/02/05 06:22:49;;;;;;;3.20;0.97;;;;;;;9.71;92.06;98994.19;4070221;29;20258;-86
2024/02/05 06:24:52;;;;;;;1.47;0.60;;;;;;;9.72;92.18;98992.44;4077151;29;20827;-86
2024/02/05 06:26:55;;;;;;;1.00;0.47;;;;;;;9.69;92.31;98997.78;4070582;29;20741;-86
2024/02/05 06:28:58;;;;;;;1.70;0.60;;;;;;;9.75;91.85;99002.69;4076302;29;20637;-86
2024/02/05 06:31:01;;;;;;;1.58;0.65;;;;;;;9.82;91.28;98998.84;4058894;29;20215;-86
2024/02/05 06:33:06;;;;;;;1.20;0.60;;;;;;;9.80;91.50;98988.50;4075952;29;20206;-86
2024/02/05 06:35:10;;;;;;;1.73;0.50;;;;;;;9.89;91.42;98991.50;4076620;29;20796;-86
2024/02/05 06:37:12;;;;;;;1.27;0.60;;;;;;;9.96;91.80;99003.31;4071680;29;20245;-86
2024/02/05 06:39:15;;;;;;;1.45;0.60;;;;;;;10.00;90.74;98994.41;4077463;28;20203;-86
2024/02/05 06:41:19;;;;;;;1.40;0.60;;;;;;;9.99;90.58;98997.09;4078230;29;20700;-86
2024/02/05 06:43:22;;;;;;;1.70;0.60;;;;;;;10.05;90.42;99000.22;4074535;29;20244;-86
2024/02/05 06:45:25;;;;;;;1.73;0.70;;;;;;;10.09;89.78;99003.53;4073074;29;20630;-87
2024/02/05 06:47:28;;;;;;;3.50;0.75;;;;;;;10.13;89.99;98995.47;4076450;29;20370;-87
2024/02/05 06:49:33;;;;;;;1.40;0.70;;;;;;;10.18;90.00;98996.06;4076724;29;20325;-87
2024/02/05 06:51:37;;;;;;;2.78;0.90;;;;;;;10.19;89.36;99000.34;4076267;29;20763;-87
2024/02/05 06:53:39;;;;;;;1.40;0.60;;;;;;;10.21;90.25;98993.31;4060324;29;20206;-87
2024/02/05 06:55:43;;;;;;;1.97;0.80;;;;;;;10.23;89.04;98994.06;4058530;29;20644;-87
2024/02/05 06:57:46;;;;;;;2.45;0.77;;;;;;;10.23;89.02;99004.50;4078638;29;20666;-88
2024/02/05 06:59:48;;;;;;;2.67;0.80;;;;;;;10.24;88.81;99007.94;4078359;29;20274;-87
2024/02/05 07:01:52;;;;;;;2.10;0.97;;;;;;;10.28;89.06;99005.09;4061650;29;20752;-88
2024/02/05 07:03:55;;;;;;;3.70;0.90;;;;;;;10.30;89.11;99003.25;4079051;29;20681;-87
2024/02/05 07:06:00;;;;;;;1.73;0.70;;;;;;;10.32;88.96;99007.44;4067716;29;21413;-88
2024/02/05 07:08:03;;;;;;;1.50;0.60;;;;;;;10.35;88.61;99007.28;4078733;29;20631;-88
2024/02/05 07:10:07;;;;;;;4.23;0.93;;;;;;;10.34;88.03;99004.75;4076798;29;20246;-89
2024/02/05 07:12:10;;;;;;;1.63;0.77;;;;;;;10.36;88.12;99018.56;4056414;29;20646;-88
2024/02/05 07:14:14;;;;;;;3.20;0.80;;;;;;;10.38;87.51;99001.91;4068209;29;20693;-88
2024/02/05 07:16:18;;;;;;;1.77;0.73;;;;;;;10.40;88.58;99007.03;4067772;29;20638;-87
2024/02/05 07:18:20;;;;;;;4.50;1.00;;;;;;;10.41;87.94;99009.56;4055579;29;21060;-86
2024/02/05 07:20:24;;;;;;;3.00;0.97;;;;;;;10.39;88.38;99008.81;4052819;29;20658;-87
2024/02/05 07:22:29;;;;;;;2.50;1.20;;;;;;;10.28;87.77;99006.84;4069236;29;20669;-86
2024/02/05 07:24:32;;;;;;;2.23;1.00;;;;;;;10.15;89.42;99008.41;4063662;29;20634;-87
2024/02/05 07:26:37;;;;;;;3.30;1.20;;;;;;;10.04;89.06;99010.72;4077373;29;20622;-86
2024/02/05 07:28:41;;;;;;;2.40;1.10;;;;;;;9.91;89.09;99010.50;4054752;29;20678;-85
2024/02/05 07:30:45;;;;;;;2.30;1.07;;;;;;;9.82;89.62;99009.25;4071856;29;21222;-86
2024/02/05 07:32:48;;;;;;;2.20;1.10;;;;;;;9.75;90.06;99013.94;4065059;29;20638;-87
2024/02/05 07:34:51;;;;;;;2.40;1.10;;;;;;;9.71;90.31;99022.00;4080679;29;20705;-86
2024/02/05 07:36:55;;;;;;;3.70;1.00;;;;;;;9.63;90.58;99022.38;4060410;29;20627;-86
2024/02/05 07:38:58;;;;;;;2.00;1.00;;;;;;;9.63;90.76;99021.53;4075665;29;21304;-86
2024/02/05 07:41:02;;;;;;;2.23;1.20;;;;;;;9.61;90.59;99015.56;4070995;29;20710;-86
2024/02/05 07:43:05;;;;;;;3.35;1.20;;;;;;;9.59;91.30;99022.59;4075413;29;20666;-86
2024/02/05 07:45:08;;;;;;;2.57;1.40;;;;;;;9.55;90.68;99023.69;4066788;29;20725;-84
2024/02/05 07:47:11;;;;;;;3.27;1.23;;;;;;;9.57;90.55;99024.44;4075497;29;25091;-84
2024/02/05 07:49:14;;;;;;;3.00;1.50;;;;;;;9.53;90.70;99023.75;4077812;29;20633;-83
2024/02/05 07:51:17;;;;;;;5.28;3.63;;;;;;;9.50;90.40;99028.25;4078428;29;20249;-83
2024/02/05 07:53:20;;;;;;;3.05;2.10;;;;;;;9.42;90.72;99018.22;4072458;29;20215;-83
2024/02/05 07:55:24;;;;;;;2.00;1.25;;;;;;;9.38;90.68;99026.25;4077554;29;20207;-84
2024/02/05 07:57:28;;;;;;;3.35;1.27;;;;;;;9.35;91.41;99026.44;4065036;29;20215;-84
2024/02/05 07:59:32;;;;;;;4.18;1.48;;;;;;;9.40;91.10;99032.25;4075434;29;20221;-83
2024/02/05 08:01:35;;;;;;;4.93;2.40;;;;;;;9.36;91.48;99041.09;4076494;29;20318;-84
2024/02/05 08:03:38;;;;;;;2.30;1.00;;;;;;;9.29;91.09;99028.47;4079058;29;20234;-83
2024/02/05 08:05:41;;;;;;;4.45;1.85;;;;;;;9.26;91.71;99026.88;4076459;28;20261;-84
2024/02/05 08:07:44;;;;;;;2.53;1.35;;;;;;;9.18;91.97;99028.97;4075130;29;20249;-84
2024/02/05 08:09:48;;;;;;;4.30;1.40;;;;;;;9.16;91.79;99024.78;4073021;29;20229;-84
2024/02/05 08:11:52;;;;;;;3.38;1.52;;;;;;;9.17;91.95;99029.91;4064931;29;20207;-84
2024/02/05 08:13:55;;;;;;;2.15;1.10;;;;;;;9.16;92.23;99028.22;4077020;29;20295;-84
2024/02/05 08:15:59;;;;;;;2.65;1.25;;;;;;;9.13;91.92;99009.31;4078716;29;20208;-84
2024/02/05 08:18:01;;;;;;;2.42;1.08;;;;;;;9.07;92.55;99020.84;4066149;29;20236;-86
2024/02/05 08:20:06;;;;;;;3.33;1.25;;;;;;;9.12;92.58;99013.66;4072462;29;20707;-86
2024/02/05 08:22:09;;;;;;;3.80;2.67;;;;;;;9.13;92.40;99017.13;4070508;29;20239;-86
2024/02/05 08:24:12;;;;;;;2.20;1.27;;;;;;;9.14;92.21;99018.78;4075413;29;20598;-87
2024/02/05 08:26:15;;;;;;;4.40;2.58;;;;;;;9.19;93.19;99012.44;4072845;29;20214;-88
2024/02/05 08:28:20;;;;;;;3.65;1.90;;;;;;;9.27;92.96;99019.91;4077347;29;20945;-87
2024/02/05 08:30:23;;;;;;;2.85;1.65;;;;;;;9.36;92.44;99024.66;4070809;29;20217;-87
2024/02/05 08:32:27;;;;;;;2.05;1.15;;;;;;;9.38;92.11;99021.03;4073628;29;20681;-88
2024/02/05 08:34:30;;;;;;;4.15;1.30;;;;;;;9.39;91.42;99026.19;4076272;29;20211;-88
2024/02/05 08:36:33;;;;;;;3.10;1.30;;;;;;;9.41;91.79;99023.50;4078131;29;20202;-88
2024/02/05 08:38:37;;;;;;;3.03;1.30;;;;;;;9.46;92.36;99022.38;4073156;29;20225;-88
2024/02/05 08:40:40;;;;;;;2.20;1.02;;;;;;;9.49;91.18;99021.38;4063642;29;20254;-88
2024/02/05 08:42:43;;;;;;;2.20;1.20;;;;;;;9.54;91.47;99028.03;4083182;29;20728;-88
2024/02/05 08:44:48;;;;;;;2.25;1.38;;;;;;;9.56;91.39;99023.63;4080369;29;20735;-88
2024/02/05 08:46:51;;;;;;;1.98;1.23;;;;;;;9.61;90.99;99023.38;4076604;29;20622;-88
2024/02/05 08:48:54;;;;;;;2.40;1.10;;;;;;;9.64;90.97;99025.84;4073342;29;20684;-88
2024/02/05 08:50:58;;;;;;;1.80;1.00;;;;;;;9.72;91.17;99029.72;4073980;29;20357;-88
2024/02/05 08:53:01;;;;;;;3.88;1.20;;;;;;;9.74;90.41;99024.44;4059746;29;20650;-87
2024/02/05 08:55:06;;;;;;;2.78;1.20;;;;;;;9.80;89.55;99024.13;4063162;29;20293;-88
2024/02/05 08:57:08;;;;;;;2.53;1.10;;;;;;;9.82;89.96;99019.69;4062680;29;20206;-87
2024/02/05 08:59:12;;;;;;;2.10;1.00;;;;;;;9.80;89.45;99016.31;4078131;29;20622;-88
2024/02/05 09:01:16;;;;;;;2.10;1.30;;;;;;;9.79;89.94;99014.63;4071780;29;20981;-88
2024/02/05 09:03:21;;;;;;;1.73;1.15;;;;;;;9.83;89.88;99016.16;4057703;29;20674;-87
2024/02/05 09:05:25;;;;;;;2.63;1.20;;;;;;;9.85;89.68;99018.63;4058541;29;20227;-88
2024/02/05 09:07:43;;;;;;;4.10;1.23;;;;;;;9.91;89.99;99018.31;4058075;29;20654;-88
2024/02/05 09:09:46;;;;;;;2.70;1.17;;;;;;;10.00;89.91;99025.69;4062366;29;20726;-88
2024/02/05 09:11:49;;;;;;;2.33;1.30;;;;;;;10.08;89.53;99020.09;4059193;29;21264;-87
2024/02/05 09:14:08;;;;;;;2.83;1.00;;;;;;;10.16;89.52;99020.53;4087517;28;20203;-88
2024/02/05 09:16:11;;;;;;;7.25;1.00;;;;;;;10.26;89.22;99016.53;4075301;29;20642;-88
2024/02/05 09:18:16;;;;;;;1.83;1.10;;;;;;;10.24;87.92;99016.59;4059922;29;20250;-87
2024/02/05 09:20:19;;;;;;;3.67;1.00;;;;;;;10.26;87.95;99013.94;4074011;29;20631;-87
2024/02/05 09:22:23;;;;;;;3.80;1.30;;;;;;;10.21;87.95;99018.50;4077526;29;21223;-87
2024/02/05 09:24:25;;;;;;;2.33;1.30;;;;;;;10.24;88.57;99015.75;4057679;29;20230;-88
2024/02/05 09:26:28;;;;;;;5.80;1.30;;;;;;;10.32;89.25;99017.88;4074393;29;21272;-88
2024/02/05 09:28:31;;;;;;;3.75;1.38;;;;;;;10.35;88.84;99011.66;4071958;29;21185;-88
2024/02/05 09:30:34;;;;;;;4.32;1.63;;;;;;;10.39;88.68;99010.59;4082296;28;20210;-87
2024/02/05 09:32:37;;;;;;;3.15;1.75;;;;;;;10.39;87.83;99018.41;4069615;29;20306;-87
2024/02/05 09:34:42;;;;;;;5.00;1.60;;;;;;;10.45;88.28;99013.72;4074882;29;20218;-88
2024/02/05 09:36:45;;;;;;;3.08;1.30;;;;;;;10.48;87.97;99018.75;4061395;29;20632;-87
2024/02/05 09:38:49;;;;;;;3.53;1.30;;;;;;;10.49;87.71;99011.78;4059836;29;20218;-88
2024/02/05 09:41:05;;;;;;;2.13;1.20;;;;;;;10.56;86.94;99020.97;4059247;29;20726;-88
2024/02/05 09:43:09;;;;;;;2.28;1.10;;;;;;;10.59;88.02;99021.63;4066476;29;20657;-88
2024/02/05 09:45:13;;;;;;;2.73;1.37;;;;;;;10.58;88.39;99014.72;4069652;29;20284;-87
2024/02/05 09:47:18;;;;;;;3.93;1.33;;;;;;;10.61;86.97;99022.38;4074450;29;20637;-88